createdAt,value
2019-05-22T00:02:06.978Z,98284.00
2019-05-22T00:07:16.498Z,98287.83
2019-05-22T00:12:25.502Z,98285.80
2019-05-22T00:17:34.544Z,98286.28
2019-05-22T00:22:44.208Z,98288.94
2019-05-22T00:27:55.075Z,98292.56
2019-05-22T00:33:03.014Z,98290.95
2019-05-22T00:38:12.362Z,98284.24
2019-05-22T00:43:30.331Z,98295.03
2019-05-22T00:48:42.204Z,98296.39
2019-05-22T00:54:09.887Z,98296.06
2019-05-22T00:59:25.421Z,98289.13
2019-05-22T01:04:38.708Z,98289.86
2019-05-22T01:09:47.720Z,98283.23
2019-05-22T01:14:55.462Z,98285.22
2019-05-22T01:20:05.304Z,98290.48
2019-05-22T01:25:17.555Z,98293.09
2019-05-22T01:30:47.016Z,98301.20
2019-05-22T01:36:21.027Z,98302.77
2019-05-22T01:41:33.313Z,98307.11
2019-05-22T01:46:45.826Z,98295.30
2019-05-22T01:51:56.122Z,98300.36
2019-05-22T01:57:05.768Z,98306.09
2019-05-22T02:02:16.656Z,98301.63
2019-05-22T02:07:25.623Z,98310.14
2019-05-22T02:12:55.215Z,98326.11
2019-05-22T02:18:07.814Z,98331.20
2019-05-22T02:23:17.377Z,98342.28
2019-05-22T02:28:25.487Z,98348.45
2019-05-22T02:33:34.472Z,98341.09
2019-05-22T02:38:42.307Z,98342.95
2019-05-22T02:43:50.191Z,98339.14
2019-05-22T02:48:58.860Z,98342.95
2019-05-22T02:54:07.162Z,98347.93
2019-05-22T02:59:15.491Z,98353.03
2019-05-22T03:04:24.777Z,98350.62
2019-05-22T03:09:32.361Z,98359.73
2019-05-22T03:14:41.387Z,98363.05
2019-05-22T03:19:50.956Z,98367.08
2019-05-22T03:25:02.311Z,98369.97
2019-05-22T03:30:21.855Z,98383.34
2019-05-22T03:35:31.884Z,98378.37
2019-05-22T03:40:39.728Z,98382.73
2019-05-22T03:45:48.196Z,98381.48
2019-05-22T03:51:07.379Z,98379.81
2019-05-22T03:56:18.509Z,98386.23
2019-05-22T04:01:26.458Z,98392.67
2019-05-22T04:06:34.478Z,98395.37
2019-05-22T04:11:46.768Z,98394.72
2019-05-22T04:16:55.628Z,98395.33
2019-05-22T04:22:03.924Z,98406.61
2019-05-22T04:27:12.284Z,98404.42
2019-05-22T04:32:37.647Z,98417.53
2019-05-22T04:37:47.355Z,98421.84
2019-05-22T04:42:56.851Z,98411.30
2019-05-22T04:48:05.697Z,98418.92
2019-05-22T04:53:13.842Z,98425.44
2019-05-22T04:58:32.232Z,98431.59
2019-05-22T05:03:39.802Z,98436.39
2019-05-22T05:08:47.389Z,98444.41
2019-05-22T05:13:55.531Z,98445.98
2019-05-22T05:19:03.252Z,98462.45
2019-05-22T05:24:11.319Z,98465.45
2019-05-22T05:29:31.328Z,98475.57
2019-05-22T05:34:55.781Z,98477.39
2019-05-22T05:40:39.679Z,98485.25
2019-05-22T05:45:51.118Z,98488.62
2019-05-22T05:51:45.920Z,98487.39
2019-05-22T05:56:55.614Z,98495.20
2019-05-22T06:02:04.902Z,98492.98
2019-05-22T06:07:29.971Z,98502.97
2019-05-22T06:12:38.016Z,98498.11
2019-05-22T06:18:35.019Z,98497.89
2019-05-22T06:24:25.845Z,98495.32
2019-05-22T06:29:55.867Z,98504.31
2019-05-22T06:35:05.025Z,98513.03
2019-05-22T06:40:18.801Z,98517.39
2019-05-22T06:45:27.509Z,98517.78
2019-05-22T06:50:35.199Z,98521.55
2019-05-22T06:55:44.533Z,98518.74
2019-05-22T07:00:52.282Z,98540.94
2019-05-22T07:05:59.801Z,98535.68
2019-05-22T07:11:07.786Z,98533.66
2019-05-22T07:16:15.985Z,98544.26
2019-05-22T07:21:33.705Z,98542.47
2019-05-22T07:26:32.906Z,98551.19
2019-05-22T07:31:41.097Z,98557.79
2019-05-22T07:36:48.495Z,98563.11
2019-05-22T07:41:56.147Z,98557.84
2019-05-22T07:47:05.590Z,98566.60
2019-05-22T07:52:13.485Z,98577.23
2019-05-22T07:57:25.429Z,98578.54
2019-05-22T08:02:41.276Z,98586.53
2019-05-22T08:07:50.797Z,98596.12
2019-05-22T08:12:59.229Z,98595.17
2019-05-22T08:18:06.671Z,98599.06
2019-05-22T08:23:14.344Z,98610.70
2019-05-22T08:28:23.970Z,98616.66
2019-05-22T08:33:32.738Z,98621.85
2019-05-22T08:38:42.247Z,98620.13
2019-05-22T08:44:13.554Z,98622.81
2019-05-22T08:49:00.017Z,98635.34
2019-05-22T08:54:09.099Z,98646.42
2019-05-22T08:59:19.875Z,98645.66
2019-05-22T09:04:27.109Z,98650.17
2019-05-22T09:09:35.010Z,98659.29
2019-05-22T09:14:43.548Z,98663.45
2019-05-22T09:19:51.537Z,98665.28
2019-05-22T09:25:00.190Z,98666.80
2019-05-22T09:30:09.591Z,98677.13
2019-05-22T09:35:18.196Z,98680.56
2019-05-22T09:40:26.017Z,98691.36
2019-05-22T09:45:33.610Z,98695.02
2019-05-22T09:50:42.090Z,98693.20
2019-05-22T09:55:50.208Z,98700.26
2019-05-22T10:00:58.027Z,98708.23
2019-05-22T10:06:06.188Z,98723.31
2019-05-22T10:11:15.333Z,98730.83
2019-05-22T10:16:22.888Z,98732.12
2019-05-22T10:21:30.955Z,98750.19
2019-05-22T10:26:38.514Z,98754.68
2019-05-22T10:31:46.475Z,98747.70
2019-05-22T10:36:54.125Z,98758.91
2019-05-22T10:42:01.597Z,98760.55
2019-05-22T10:47:10.049Z,98761.44
2019-05-22T10:52:17.674Z,98763.66
2019-05-22T10:57:25.758Z,98755.19
2019-05-22T11:02:33.649Z,98761.23
2019-05-22T11:07:41.843Z,98764.92
2019-05-22T11:12:49.560Z,98772.94
2019-05-22T11:17:58.602Z,98777.06
2019-05-22T11:23:07.464Z,98778.48
2019-05-22T11:28:14.929Z,98772.77
2019-05-22T11:33:22.526Z,98770.84
2019-05-22T11:38:30.467Z,98777.98
2019-05-22T11:43:38.246Z,98779.33
2019-05-22T11:48:45.602Z,98781.55
2019-05-22T11:54:08.097Z,98779.33
2019-05-22T11:59:02.141Z,98790.03
2019-05-22T12:04:12.537Z,98777.09
2019-05-22T12:09:20.186Z,98783.94
2019-05-22T12:14:27.705Z,98797.13
2019-05-22T12:19:35.088Z,98795.11
2019-05-22T12:24:42.719Z,98794.27
2019-05-22T12:29:51.419Z,98799.86
2019-05-22T12:34:59.216Z,98799.90
2019-05-22T12:40:09.196Z,98804.38
2019-05-22T12:45:19.035Z,98798.64
2019-05-22T12:50:31.927Z,98804.34
2019-05-22T12:55:39.806Z,98804.72
2019-05-22T13:00:48.184Z,98808.00
2019-05-22T13:05:56.328Z,98816.70
2019-05-22T13:11:05.518Z,98814.38
2019-05-22T13:16:14.828Z,98811.95
2019-05-22T13:21:26.261Z,98814.14
2019-05-22T13:26:36.948Z,98812.92
2019-05-22T13:31:45.893Z,98820.31
2019-05-22T13:36:56.880Z,98819.25
2019-05-22T13:42:03.814Z,98816.57
2019-05-22T13:47:12.685Z,98819.42
2019-05-22T13:52:26.993Z,98824.67
2019-05-22T13:57:34.385Z,98828.30
2019-05-22T14:02:42.407Z,98835.56
2019-05-22T14:07:51.131Z,98836.98
2019-05-22T14:12:58.964Z,98839.91
2019-05-22T14:18:07.079Z,98854.53
2019-05-22T14:23:16.322Z,98855.57
2019-05-22T14:28:26.898Z,98856.95
2019-05-22T14:33:35.043Z,98861.75
2019-05-22T14:38:43.543Z,98848.31
2019-05-22T14:43:50.989Z,98855.00
2019-05-22T14:48:58.738Z,98858.05
2019-05-22T14:54:09.416Z,98863.59
2019-05-22T14:59:17.783Z,98861.92
2019-05-22T15:04:28.390Z,98857.78
2019-05-22T15:09:36.143Z,98863.77
2019-05-22T15:14:44.470Z,98865.55
2019-05-22T15:19:52.143Z,98876.09
2019-05-22T15:25:00.144Z,98873.91
2019-05-22T15:30:09.744Z,98871.79
2019-05-22T15:35:20.201Z,98868.97
2019-05-22T15:40:28.871Z,98877.56
2019-05-22T15:45:37.924Z,98876.78
2019-05-22T15:50:48.297Z,98875.16
2019-05-22T15:55:58.268Z,98878.80
2019-05-22T16:01:08.399Z,98886.58
2019-05-22T16:06:18.626Z,98897.48
2019-05-22T16:11:30.101Z,98896.98
2019-05-22T16:16:39.236Z,98908.05
2019-05-22T16:21:52.885Z,98906.38
2019-05-22T16:27:01.635Z,98912.61
2019-05-22T16:32:14.178Z,98909.97
2019-05-22T16:37:23.155Z,98917.52
2019-05-22T16:42:34.284Z,98923.59
2019-05-22T16:47:42.491Z,98923.90
2019-05-22T16:52:50.422Z,98931.16
2019-05-22T16:57:58.014Z,98940.22
2019-05-22T17:03:06.586Z,98940.89
2019-05-22T17:08:16.407Z,98937.34
2019-05-22T17:13:24.863Z,98941.08
2019-05-22T17:18:46.623Z,98953.18
2019-05-22T17:23:45.599Z,98950.78
2019-05-22T17:28:53.265Z,98958.73
2019-05-22T17:34:02.387Z,98968.82
2019-05-22T17:39:12.900Z,98964.24
2019-05-22T17:44:21.583Z,98970.29
2019-05-22T17:49:30.148Z,98972.13
2019-05-22T17:54:37.561Z,98974.16
2019-05-22T17:59:44.952Z,98971.63
2019-05-22T18:04:52.732Z,98977.02
2019-05-22T18:10:00.510Z,98983.73
2019-05-22T18:15:10.175Z,98982.38
2019-05-22T18:20:20.001Z,98986.06
2019-05-22T18:25:27.757Z,98989.92
2019-05-22T18:30:38.287Z,98997.98
2019-05-22T18:35:45.855Z,99000.82
2019-05-22T18:40:53.172Z,99006.17
2019-05-22T18:46:01.082Z,99018.26
2019-05-22T18:51:09.997Z,99024.33
2019-05-22T18:56:17.421Z,99030.01
2019-05-22T19:01:25.006Z,99031.68
2019-05-22T19:06:32.380Z,99037.56
2019-05-22T19:11:41.409Z,99045.62
2019-05-22T19:16:48.923Z,99041.43
2019-05-22T19:21:56.444Z,99039.95
2019-05-22T19:27:03.985Z,99040.77
2019-05-22T19:32:11.528Z,99040.75
2019-05-22T19:37:20.035Z,99044.47
2019-05-22T19:42:27.582Z,99050.70
2019-05-22T19:47:35.353Z,99067.61
2019-05-22T19:52:44.673Z,99064.61
2019-05-22T19:57:52.648Z,99068.94
2019-05-22T20:03:00.320Z,99059.03
2019-05-22T20:08:10.521Z,99067.44
2019-05-22T20:13:21.015Z,99069.10
2019-05-22T20:18:28.993Z,99063.75
2019-05-22T20:23:37.107Z,99067.28
2019-05-22T20:28:44.601Z,99065.94
2019-05-22T20:33:52.525Z,99073.63
2019-05-22T20:39:01.518Z,99074.30
2019-05-22T20:44:11.723Z,99076.16
2019-05-22T20:49:20.064Z,99083.70
2019-05-22T20:54:28.689Z,99085.24
2019-05-22T20:59:36.399Z,99088.92
2019-05-22T21:04:46.132Z,99091.27
2019-05-22T21:09:54.360Z,99098.80
2019-05-22T21:15:02.175Z,99105.02
2019-05-22T21:20:13.935Z,99106.52
2019-05-22T21:25:21.777Z,99103.53
2019-05-22T21:30:30.177Z,99105.52
2019-05-22T21:35:39.205Z,99103.33
2019-05-22T21:40:46.623Z,99104.88
2019-05-22T21:45:54.411Z,99103.69
2019-05-22T21:51:01.907Z,99106.22
2019-05-22T21:56:09.986Z,99108.22
2019-05-22T22:01:26.105Z,99109.91
2019-05-22T22:06:34.931Z,99107.72
2019-05-22T22:11:44.029Z,99113.77
2019-05-22T22:16:51.554Z,99113.24
2019-05-22T22:21:59.603Z,99119.30
2019-05-22T22:27:07.882Z,99116.77
2019-05-22T22:32:17.565Z,99118.61
2019-05-22T22:37:26.685Z,99112.09
2019-05-22T22:42:36.940Z,99119.46
2019-05-22T22:47:45.596Z,99125.33
2019-05-22T22:52:53.086Z,99125.67
2019-05-22T22:58:16.078Z,99122.00
2019-05-22T23:03:14.619Z,99129.20
2019-05-22T23:08:29.427Z,99137.41
2019-05-22T23:13:37.622Z,99144.46
2019-05-22T23:19:36.135Z,99146.30
2019-05-22T23:24:43.945Z,99153.02
2019-05-22T23:29:52.264Z,99158.72
2019-05-22T23:35:01.366Z,99154.20
2019-05-22T23:40:11.433Z,99156.88
2019-05-22T23:45:22.221Z,99161.56
2019-05-22T23:50:31.746Z,99166.92
2019-05-22T23:55:41.162Z,99162.09
